createdAt,value
2018-07-02T00:01:11.533Z,2.27
2018-07-02T00:03:39.753Z,2.17
2018-07-02T00:06:32.582Z,2.47
2018-07-02T00:09:00.784Z,1.93
2018-07-02T00:11:28.949Z,2.10
2018-07-02T00:13:57.121Z,2.60
2018-07-02T00:16:25.341Z,2.27
2018-07-02T00:18:53.525Z,2.30
2018-07-02T00:21:21.702Z,2.37
2018-07-02T00:23:49.942Z,2.00
2018-07-02T00:26:18.192Z,2.40
2018-07-02T00:28:46.393Z,2.30
2018-07-02T00:31:14.582Z,2.13
2018-07-02T00:33:42.741Z,2.10
2018-07-02T00:36:10.971Z,2.87
2018-07-02T00:38:39.314Z,2.20
2018-07-02T00:41:07.560Z,2.50
2018-07-02T00:43:35.807Z,2.23
2018-07-02T00:46:04.033Z,2.10
2018-07-02T00:48:32.209Z,2.60
2018-07-02T00:51:00.393Z,2.40
2018-07-02T00:53:28.554Z,2.80
2018-07-02T00:55:56.721Z,2.77
2018-07-02T00:58:24.901Z,2.90
2018-07-02T01:00:53.079Z,2.60
2018-07-02T01:03:21.234Z,2.70
2018-07-02T01:05:49.401Z,2.77
2018-07-02T01:08:17.569Z,2.40
2018-07-02T01:10:45.751Z,2.60
2018-07-02T01:13:13.944Z,2.60
2018-07-02T01:15:42.119Z,2.23
2018-07-02T01:18:10.290Z,2.20
2018-07-02T01:20:39.321Z,2.40
2018-07-02T01:23:07.609Z,2.60
2018-07-02T01:25:35.939Z,2.50
2018-07-02T01:28:04.108Z,2.30
2018-07-02T01:30:32.296Z,2.30
2018-07-02T01:33:00.465Z,2.30
2018-07-02T01:35:28.705Z,2.40
2018-07-02T01:37:56.873Z,2.33
2018-07-02T01:40:25.063Z,2.13
2018-07-02T01:42:53.276Z,2.10
2018-07-02T01:45:21.433Z,2.03
2018-07-02T01:47:49.622Z,2.20
2018-07-02T01:50:17.877Z,2.10
2018-07-02T01:52:46.084Z,2.00
2018-07-02T01:55:14.264Z,2.13
2018-07-02T01:57:42.451Z,2.10
2018-07-02T02:00:10.799Z,2.07
2018-07-02T02:02:38.986Z,2.20
2018-07-02T02:05:07.199Z,2.17
2018-07-02T02:07:35.357Z,2.33
2018-07-02T02:10:03.591Z,2.20
2018-07-02T02:12:31.780Z,2.30
2018-07-02T02:14:59.948Z,2.43
2018-07-02T02:17:28.104Z,2.40
2018-07-02T02:19:56.284Z,2.30
2018-07-02T02:22:24.469Z,2.57
2018-07-02T02:24:52.625Z,2.53
2018-07-02T02:27:20.801Z,2.47
2018-07-02T02:29:48.981Z,2.53
2018-07-02T02:32:17.130Z,2.60
2018-07-02T02:34:45.308Z,2.73
2018-07-02T02:37:13.485Z,2.90
2018-07-02T02:39:41.664Z,2.53
2018-07-02T02:42:09.870Z,3.00
2018-07-02T02:44:37.793Z,2.93
2018-07-02T02:47:06.016Z,2.83
2018-07-02T02:49:34.208Z,2.63
2018-07-02T02:52:02.415Z,2.80
2018-07-02T02:54:30.565Z,2.90
2018-07-02T02:56:58.773Z,2.87
2018-07-02T02:59:26.948Z,3.10
2018-07-02T03:01:55.144Z,3.20
2018-07-02T03:04:23.321Z,2.90
2018-07-02T03:06:51.491Z,3.50
2018-07-02T03:09:19.667Z,2.70
2018-07-02T03:11:47.869Z,2.90
2018-07-02T03:14:16.065Z,2.80
2018-07-02T03:16:44.245Z,2.77
2018-07-02T03:19:12.425Z,3.07
2018-07-02T03:21:40.608Z,3.47
2018-07-02T03:24:08.774Z,2.77
2018-07-02T03:26:36.948Z,2.90
2018-07-02T03:29:05.166Z,2.90
2018-07-02T03:31:33.323Z,2.63
2018-07-02T03:34:01.525Z,3.20
2018-07-02T03:36:29.441Z,2.83
2018-07-02T03:38:57.633Z,2.70
2018-07-02T03:41:25.833Z,2.47
2018-07-02T03:43:54.058Z,2.47
2018-07-02T03:46:22.220Z,2.50
2018-07-02T03:48:50.420Z,2.90
2018-07-02T03:51:18.605Z,2.77
2018-07-02T03:53:46.795Z,2.60
2018-07-02T03:56:14.993Z,2.47
2018-07-02T03:58:43.164Z,2.40
2018-07-02T04:01:11.372Z,2.40
2018-07-02T04:03:39.612Z,2.70
2018-07-02T04:06:07.799Z,2.70
2018-07-02T04:08:35.970Z,2.57
2018-07-02T04:11:04.179Z,2.43
2018-07-02T04:13:32.367Z,2.57
2018-07-02T04:16:00.546Z,2.20
2018-07-02T04:18:28.741Z,2.40
2018-07-02T04:20:56.881Z,2.30
2018-07-02T04:23:25.062Z,2.50
2018-07-02T04:25:53.248Z,2.07
2018-07-02T04:28:21.431Z,2.20
2018-07-02T04:30:49.736Z,2.20
2018-07-02T04:33:17.960Z,2.40
2018-07-02T04:35:46.141Z,2.13
2018-07-02T04:38:14.365Z,2.37
2018-07-02T04:40:42.713Z,2.00
2018-07-02T04:43:10.922Z,2.23
2018-07-02T04:45:39.087Z,2.00
2018-07-02T04:48:07.455Z,1.93
2018-07-02T04:50:35.632Z,2.00
2018-07-02T04:53:03.847Z,2.10
2018-07-02T04:55:32.014Z,2.00
2018-07-02T04:58:00.267Z,2.30
2018-07-02T05:00:28.479Z,2.30
2018-07-02T05:02:56.756Z,1.90
2018-07-02T05:05:24.914Z,2.10
2018-07-02T05:07:53.224Z,2.10
2018-07-02T05:10:21.451Z,1.87
2018-07-02T05:12:49.633Z,2.10
2018-07-02T05:15:17.820Z,2.30
2018-07-02T05:17:46.585Z,2.33
2018-07-02T05:20:14.763Z,1.90
2018-07-02T05:22:42.944Z,1.93
2018-07-02T05:25:11.141Z,1.77
2018-07-02T05:27:39.334Z,2.10
2018-07-02T05:30:07.566Z,1.90
2018-07-02T05:32:35.803Z,2.27
2018-07-02T05:35:03.970Z,1.90
2018-07-02T05:37:32.859Z,1.90
2018-07-02T05:40:01.050Z,1.80
2018-07-02T05:42:29.192Z,1.70
2018-07-02T05:44:57.432Z,2.07
2018-07-02T05:47:25.628Z,2.10
2018-07-02T05:49:53.808Z,2.20
2018-07-02T05:52:22.009Z,1.87
2018-07-02T05:54:50.294Z,1.80
2018-07-02T05:57:18.490Z,2.00
2018-07-02T05:59:48.068Z,1.73
2018-07-02T06:02:16.245Z,1.93
2018-07-02T06:04:44.439Z,1.63
2018-07-02T06:07:12.612Z,1.63
2018-07-02T06:09:40.833Z,1.80
2018-07-02T06:12:09.002Z,1.27
2018-07-02T06:14:37.181Z,1.53
2018-07-02T06:17:06.650Z,1.10
2018-07-02T06:19:34.852Z,1.37
2018-07-02T06:22:03.044Z,1.27
2018-07-02T06:24:31.237Z,1.33
2018-07-02T06:26:59.428Z,1.50
2018-07-02T06:29:27.929Z,1.60
2018-07-02T06:31:56.128Z,1.30
2018-07-02T06:34:24.370Z,1.27
2018-07-02T06:36:52.592Z,1.30
2018-07-02T06:39:20.787Z,0.97
2018-07-02T06:41:48.990Z,1.40
2018-07-02T06:44:17.188Z,1.20
2018-07-02T06:46:45.392Z,1.10
2018-07-02T06:49:13.549Z,1.00
2018-07-02T06:51:41.849Z,1.40
2018-07-02T06:54:10.018Z,1.27
2018-07-02T06:56:38.195Z,1.23
2018-07-02T06:59:06.409Z,1.03
2018-07-02T07:01:34.352Z,1.10
2018-07-02T07:04:02.750Z,1.03
2018-07-02T07:06:30.910Z,1.20
2018-07-02T07:08:59.072Z,1.23
2018-07-02T07:11:27.292Z,1.23
2018-07-02T07:13:55.464Z,0.93
2018-07-02T07:16:23.651Z,0.97
2018-07-02T07:18:51.823Z,1.03
2018-07-02T07:21:19.996Z,1.10
2018-07-02T07:23:48.169Z,1.27
2018-07-02T07:26:16.325Z,0.97
2018-07-02T07:28:44.483Z,1.00
2018-07-02T07:31:12.649Z,1.10
2018-07-02T07:33:40.793Z,0.90
2018-07-02T07:36:08.981Z,0.80
2018-07-02T07:38:37.184Z,1.17
2018-07-02T07:41:05.473Z,0.97
2018-07-02T07:43:33.717Z,1.47
2018-07-02T07:46:01.648Z,1.30
2018-07-02T07:48:30.021Z,1.90
2018-07-02T07:50:58.227Z,1.70
2018-07-02T07:53:26.453Z,1.30
2018-07-02T07:55:54.637Z,1.20
2018-07-02T07:58:22.995Z,0.97
2018-07-02T08:00:51.227Z,1.00
2018-07-02T08:03:19.437Z,1.17
2018-07-02T08:05:47.737Z,1.10
2018-07-02T08:08:15.999Z,0.90
2018-07-02T08:10:44.206Z,0.70
2018-07-02T08:13:12.370Z,0.70
2018-07-02T08:15:40.568Z,0.80
2018-07-02T08:18:08.788Z,0.80
2018-07-02T08:20:37.012Z,0.70
2018-07-02T08:23:05.282Z,0.90
2018-07-02T08:25:33.460Z,0.70
2018-07-02T08:28:01.663Z,0.60
2018-07-02T08:30:29.842Z,0.70
2018-07-02T08:32:58.115Z,0.60
2018-07-02T08:35:26.311Z,0.77
2018-07-02T08:37:54.537Z,0.70
2018-07-02T08:40:22.735Z,0.77
2018-07-02T08:42:51.078Z,0.60
2018-07-02T08:45:19.318Z,0.75
2018-07-02T08:47:47.509Z,0.55
2018-07-02T08:50:15.706Z,0.80
2018-07-02T08:52:44.000Z,0.60
2018-07-02T08:55:12.170Z,0.75
2018-07-02T08:57:40.354Z,0.60
2018-07-02T09:00:08.565Z,0.45
2018-07-02T09:02:36.796Z,1.77
2018-07-02T09:05:04.976Z,0.70
2018-07-02T09:07:33.192Z,0.62
2018-07-02T09:10:01.380Z,0.50
2018-07-02T09:12:29.549Z,0.62
2018-07-02T09:14:57.757Z,0.70
2018-07-02T09:17:25.917Z,0.93
2018-07-02T09:19:54.148Z,0.60
2018-07-02T09:22:22.511Z,0.50
2018-07-02T09:24:50.674Z,0.33
2018-07-02T09:27:18.859Z,0.53
2018-07-02T09:29:47.059Z,0.62
2018-07-02T09:32:15.292Z,0.62
2018-07-02T09:34:43.462Z,0.40
2018-07-02T09:37:11.837Z,0.47
2018-07-02T09:39:40.003Z,0.60
2018-07-02T09:42:08.209Z,0.53
2018-07-02T09:44:36.417Z,0.60
2018-07-02T09:47:04.792Z,0.50
2018-07-02T09:49:33.026Z,0.60
2018-07-02T09:52:01.179Z,0.47
2018-07-02T09:54:29.413Z,0.68
2018-07-02T09:56:57.569Z,0.57
2018-07-02T09:59:25.788Z,0.70
2018-07-02T10:01:53.973Z,0.53
2018-07-02T10:04:22.171Z,0.50
2018-07-02T10:06:50.546Z,0.40
2018-07-02T10:09:18.714Z,0.65
2018-07-02T10:11:46.897Z,0.72
2018-07-02T10:14:15.105Z,0.80
2018-07-02T10:16:43.301Z,0.65
2018-07-02T10:19:11.459Z,0.60
2018-07-02T10:21:39.655Z,0.40
2018-07-02T10:24:07.852Z,1.00
2018-07-02T10:26:36.138Z,0.80
2018-07-02T10:29:04.405Z,0.65
2018-07-02T10:31:32.574Z,0.65
2018-07-02T10:34:00.736Z,0.53
2018-07-02T10:36:28.938Z,0.50
2018-07-02T10:38:57.114Z,0.60
2018-07-02T10:41:25.309Z,0.42
2018-07-02T10:43:53.533Z,0.35
2018-07-02T10:46:21.698Z,0.70
2018-07-02T10:48:49.879Z,0.42
2018-07-02T10:51:18.106Z,0.50
2018-07-02T10:53:46.305Z,0.50
2018-07-02T10:56:14.491Z,0.70
2018-07-02T10:58:42.817Z,0.68
2018-07-02T11:01:10.988Z,0.62
2018-07-02T11:03:39.149Z,0.78
2018-07-02T11:06:07.348Z,0.53
2018-07-02T11:08:35.558Z,0.90
2018-07-02T11:11:03.794Z,0.80
2018-07-02T11:13:31.935Z,0.57
2018-07-02T11:16:00.133Z,0.82
2018-07-02T11:18:28.293Z,0.50
2018-07-02T11:20:56.492Z,0.70
2018-07-02T11:23:24.696Z,0.72
2018-07-02T11:25:52.892Z,0.65
2018-07-02T11:28:21.194Z,0.70
2018-07-02T11:30:49.381Z,0.65
2018-07-02T11:33:17.591Z,0.70
2018-07-02T11:35:45.799Z,0.70
2018-07-02T11:38:13.969Z,0.60
2018-07-02T11:40:42.181Z,0.80
2018-07-02T11:43:10.388Z,0.53
2018-07-02T11:45:38.616Z,0.72
2018-07-02T11:48:06.802Z,0.60
2018-07-02T11:50:34.991Z,0.60
2018-07-02T11:53:03.180Z,0.53
2018-07-02T11:55:31.465Z,0.60
2018-07-02T11:58:00.004Z,0.57
2018-07-02T12:00:28.199Z,0.82
2018-07-02T12:02:56.395Z,0.80
2018-07-02T12:05:24.613Z,0.68
2018-07-02T12:07:52.857Z,0.40
2018-07-02T12:10:21.061Z,0.60
2018-07-02T12:12:49.230Z,0.60
2018-07-02T12:15:17.432Z,0.70
2018-07-02T12:17:45.587Z,0.60
2018-07-02T12:20:13.774Z,0.60
2018-07-02T12:22:41.988Z,0.78
2018-07-02T12:25:10.149Z,3.12
2018-07-02T12:27:38.290Z,0.70
2018-07-02T12:30:08.317Z,0.80
2018-07-02T12:32:36.554Z,0.95
2018-07-02T12:35:04.786Z,0.60
2018-07-02T12:37:34.436Z,0.53
2018-07-02T12:40:02.642Z,0.75
2018-07-02T12:42:30.898Z,0.85
2018-07-02T12:44:59.124Z,0.30
2018-07-02T12:47:27.283Z,0.65
2018-07-02T12:49:55.504Z,0.45
2018-07-02T12:52:23.682Z,0.65
2018-07-02T12:54:51.852Z,0.50
2018-07-02T12:57:20.093Z,0.50
2018-07-02T12:59:48.265Z,0.68
2018-07-02T13:02:16.485Z,0.78
2018-07-02T13:04:45.102Z,0.60
2018-07-02T13:07:13.285Z,0.62
2018-07-02T13:09:41.449Z,0.70
2018-07-02T13:12:09.627Z,0.60
2018-07-02T13:14:37.816Z,0.80
2018-07-02T13:17:06.869Z,0.45
2018-07-02T13:19:35.067Z,0.70
2018-07-02T13:22:03.241Z,0.72
2018-07-02T13:24:31.440Z,0.50
2018-07-02T13:26:59.951Z,0.70
2018-07-02T13:29:27.881Z,0.70
2018-07-02T13:31:56.069Z,0.40
2018-07-02T13:34:24.291Z,0.50
2018-07-02T13:36:52.520Z,0.70
2018-07-02T13:39:20.712Z,0.70
2018-07-02T13:41:48.974Z,0.50
2018-07-02T13:44:17.447Z,0.55
2018-07-02T13:46:45.666Z,0.50
2018-07-02T13:49:13.888Z,0.60
2018-07-02T13:51:42.081Z,0.57
2018-07-02T13:54:10.235Z,0.60
2018-07-02T13:56:38.449Z,0.70
2018-07-02T13:59:06.600Z,0.70
2018-07-02T14:01:36.828Z,0.45
2018-07-02T14:04:05.005Z,0.60
2018-07-02T14:06:39.642Z,0.78
2018-07-02T14:09:09.309Z,0.65
2018-07-02T14:11:37.906Z,0.65
2018-07-02T14:14:06.047Z,0.70
2018-07-02T14:16:34.557Z,0.50
2018-07-02T14:19:02.721Z,0.82
2018-07-02T14:21:30.933Z,0.65
2018-07-02T14:23:59.127Z,0.50
2018-07-02T14:26:27.341Z,0.70
2018-07-02T14:28:55.506Z,0.60
2018-07-02T14:31:23.705Z,0.60
2018-07-02T14:33:51.869Z,0.60
2018-07-02T14:36:20.057Z,0.60
2018-07-02T14:38:48.272Z,0.40
2018-07-02T14:41:16.447Z,0.40
2018-07-02T14:43:44.606Z,0.60
2018-07-02T14:46:12.806Z,0.45
2018-07-02T14:48:41.049Z,0.72
2018-07-02T14:51:09.223Z,0.60
2018-07-02T14:53:37.374Z,0.70
2018-07-02T14:56:05.573Z,0.70
2018-07-02T14:58:33.748Z,0.85
2018-07-02T15:01:01.933Z,0.82
2018-07-02T15:03:30.109Z,0.55
2018-07-02T15:05:58.305Z,0.62
2018-07-02T15:08:26.491Z,0.80
2018-07-02T15:10:54.406Z,0.75
2018-07-02T15:13:22.621Z,0.50
2018-07-02T15:15:50.780Z,1.82
2018-07-02T15:18:19.051Z,1.40
2018-07-02T15:20:46.958Z,0.85
2018-07-02T15:23:15.273Z,0.50
2018-07-02T15:25:43.444Z,0.70
2018-07-02T15:28:11.639Z,0.65
2018-07-02T15:30:39.836Z,0.82
2018-07-02T15:33:08.028Z,0.72
2018-07-02T15:35:36.235Z,0.60
2018-07-02T15:38:04.557Z,0.60
2018-07-02T15:40:32.748Z,0.85
2018-07-02T15:43:00.915Z,0.80
2018-07-02T15:45:29.076Z,0.90
2018-07-02T15:47:57.223Z,0.72
2018-07-02T15:50:25.387Z,0.65
2018-07-02T15:52:54.776Z,0.87
2018-07-02T15:55:22.949Z,0.67
2018-07-02T15:57:51.115Z,0.60
2018-07-02T16:00:19.307Z,0.77
2018-07-02T16:02:47.514Z,0.77
2018-07-02T16:05:15.828Z,1.03
2018-07-02T16:07:44.030Z,0.60
2018-07-02T16:10:12.189Z,0.97
2018-07-02T16:12:40.369Z,0.90
2018-07-02T16:15:08.625Z,1.00
2018-07-02T16:17:36.986Z,0.50
2018-07-02T16:20:05.175Z,0.43
2018-07-02T16:22:33.522Z,0.83
2018-07-02T16:25:01.784Z,0.83
2018-07-02T16:27:29.965Z,0.80
2018-07-02T16:29:58.206Z,0.60
2018-07-02T16:32:26.365Z,0.63
2018-07-02T16:34:54.499Z,0.80
2018-07-02T16:37:22.669Z,0.60
2018-07-02T16:39:50.828Z,0.70
2018-07-02T16:42:19.004Z,0.70
2018-07-02T16:44:47.193Z,0.90
2018-07-02T16:47:15.389Z,0.90
2018-07-02T16:49:43.740Z,0.50
2018-07-02T16:52:11.907Z,0.70
2018-07-02T16:54:40.102Z,0.77
2018-07-02T16:57:08.277Z,0.67
2018-07-02T16:59:36.445Z,0.70
2018-07-02T17:02:04.595Z,0.80
2018-07-02T17:04:32.866Z,0.60
2018-07-02T17:07:01.034Z,0.97
2018-07-02T17:09:29.230Z,0.67
2018-07-02T17:11:57.389Z,0.80
2018-07-02T17:14:25.551Z,0.57
2018-07-02T17:16:53.909Z,0.60
2018-07-02T17:19:22.073Z,0.70
2018-07-02T17:21:50.273Z,1.03
2018-07-02T17:24:18.445Z,0.63
2018-07-02T17:26:46.642Z,0.53
2018-07-02T17:29:14.813Z,0.93
2018-07-02T17:31:43.052Z,0.80
2018-07-02T17:34:11.225Z,0.60
2018-07-02T17:36:39.397Z,0.80
2018-07-02T17:39:10.390Z,1.47
2018-07-02T17:41:38.719Z,0.70
2018-07-02T17:44:06.878Z,0.80
2018-07-02T17:46:35.131Z,0.60
2018-07-02T17:49:03.636Z,0.93
2018-07-02T17:51:31.804Z,0.77
2018-07-02T17:53:59.985Z,0.83
2018-07-02T17:56:28.285Z,1.10
2018-07-02T17:58:56.443Z,0.60
2018-07-02T18:01:24.590Z,1.13
2018-07-02T18:03:52.768Z,0.77
2018-07-02T18:06:20.985Z,0.83
2018-07-02T18:08:49.157Z,1.07
2018-07-02T18:11:17.389Z,0.70
2018-07-02T18:13:45.720Z,0.50
2018-07-02T18:16:13.871Z,0.90
2018-07-02T18:18:42.086Z,0.73
2018-07-02T18:21:10.041Z,0.77
2018-07-02T18:23:38.235Z,0.80
2018-07-02T18:26:06.425Z,0.80
2018-07-02T18:28:34.649Z,1.17
2018-07-02T18:31:02.858Z,0.80
2018-07-02T18:33:31.592Z,0.87
2018-07-02T18:35:59.803Z,1.30
2018-07-02T18:38:27.998Z,0.80
2018-07-02T18:40:56.296Z,0.73
2018-07-02T18:43:24.557Z,1.43
2018-07-02T18:45:53.113Z,0.70
2018-07-02T18:48:21.335Z,0.80
2018-07-02T18:50:49.545Z,0.80
2018-07-02T18:53:17.464Z,0.50
2018-07-02T18:55:45.824Z,1.00
2018-07-02T18:58:14.033Z,0.73
2018-07-02T19:00:42.377Z,0.60
2018-07-02T19:03:12.080Z,0.73
2018-07-02T19:05:40.962Z,0.70
2018-07-02T19:08:10.795Z,0.90
2018-07-02T19:10:39.006Z,0.80
2018-07-02T19:13:07.201Z,0.50
2018-07-02T19:15:35.420Z,1.00
2018-07-02T19:18:03.551Z,0.60
2018-07-02T19:20:31.668Z,0.53
2018-07-02T19:23:03.566Z,1.10
2018-07-02T19:25:31.773Z,0.80
2018-07-02T19:27:59.967Z,1.13
2018-07-02T19:30:28.189Z,0.70
2018-07-02T19:32:56.373Z,0.70
2018-07-02T19:35:24.700Z,0.70
2018-07-02T19:37:52.965Z,0.70
2018-07-02T19:40:21.142Z,0.90
2018-07-02T19:42:49.345Z,0.70
2018-07-02T19:45:17.642Z,1.07
2018-07-02T19:47:55.818Z,0.83
2018-07-02T19:50:24.496Z,0.87
2018-07-02T19:52:53.074Z,0.80
2018-07-02T19:55:21.256Z,0.93
2018-07-02T19:57:49.605Z,0.70
2018-07-02T20:00:17.562Z,0.77
2018-07-02T20:02:45.840Z,0.60
2018-07-02T20:05:14.031Z,0.83
2018-07-02T20:07:41.969Z,1.00
2018-07-02T20:10:10.147Z,0.70
2018-07-02T20:12:39.844Z,0.77
2018-07-02T20:15:08.258Z,0.83
2018-07-02T20:17:36.484Z,0.77
2018-07-02T20:20:07.494Z,0.97
2018-07-02T20:22:35.684Z,0.80
2018-07-02T20:25:06.469Z,0.93
2018-07-02T20:27:34.665Z,0.60
2018-07-02T20:30:03.115Z,0.97
2018-07-02T20:32:31.329Z,0.93
2018-07-02T20:34:59.547Z,0.80
2018-07-02T20:37:27.723Z,0.93
2018-07-02T20:39:55.947Z,1.07
2018-07-02T20:42:24.128Z,0.90
2018-07-02T20:44:52.295Z,0.80
2018-07-02T20:47:20.495Z,0.87
2018-07-02T20:49:48.722Z,0.97
2018-07-02T20:52:16.898Z,1.00
2018-07-02T20:54:45.093Z,0.90
2018-07-02T20:57:13.283Z,0.80
2018-07-02T20:59:41.437Z,0.80
2018-07-02T21:02:09.630Z,0.97
2018-07-02T21:04:37.812Z,0.97
2018-07-02T21:07:05.732Z,0.73
2018-07-02T21:09:34.301Z,0.90
2018-07-02T21:12:02.470Z,0.70
2018-07-02T21:14:30.657Z,0.80
2018-07-02T21:16:58.837Z,1.03
2018-07-02T21:19:27.020Z,1.10
2018-07-02T21:21:55.220Z,1.40
2018-07-02T21:24:23.413Z,1.13
2018-07-02T21:26:51.804Z,1.07
2018-07-02T21:29:19.973Z,1.07
2018-07-02T21:31:48.170Z,1.17
2018-07-02T21:34:16.348Z,1.00
2018-07-02T21:36:44.545Z,1.07
2018-07-02T21:39:13.384Z,1.00
2018-07-02T21:41:42.249Z,0.60
2018-07-02T21:44:10.385Z,1.03
2018-07-02T21:46:38.580Z,0.90
2018-07-02T21:49:06.821Z,1.03
2018-07-02T21:51:35.050Z,1.20
2018-07-02T21:54:03.229Z,1.20
2018-07-02T21:56:31.414Z,1.47
2018-07-02T21:58:59.618Z,1.13
2018-07-02T22:01:28.022Z,1.00
2018-07-02T22:03:56.185Z,1.17
2018-07-02T22:06:24.368Z,1.13
2018-07-02T22:08:52.574Z,1.00
2018-07-02T22:11:20.757Z,1.27
2018-07-02T22:13:48.925Z,1.20
2018-07-02T22:16:17.211Z,1.20
2018-07-02T22:18:45.433Z,0.97
2018-07-02T22:21:13.600Z,1.13
2018-07-02T22:23:41.943Z,1.30
2018-07-02T22:26:10.120Z,1.30
2018-07-02T22:28:38.316Z,1.10
2018-07-02T22:31:06.548Z,1.17
2018-07-02T22:33:34.713Z,1.20
2018-07-02T22:36:02.903Z,1.10
2018-07-02T22:38:31.102Z,1.40
2018-07-02T22:40:59.252Z,0.80
2018-07-02T22:43:27.488Z,0.87
2018-07-02T22:45:55.733Z,1.30
2018-07-02T22:48:23.896Z,1.07
2018-07-02T22:50:52.149Z,1.03
2018-07-02T22:53:20.325Z,1.27
2018-07-02T22:55:56.465Z,1.30
2018-07-02T22:58:24.723Z,1.20
2018-07-02T23:00:52.949Z,1.13
2018-07-02T23:03:21.091Z,1.30
2018-07-02T23:05:49.296Z,1.23
2018-07-02T23:08:17.478Z,1.20
2018-07-02T23:10:45.661Z,0.97
2018-07-02T23:13:13.841Z,0.97
2018-07-02T23:15:41.998Z,0.90
2018-07-02T23:18:10.172Z,1.13
2018-07-02T23:20:38.411Z,1.00
2018-07-02T23:23:06.607Z,1.10
2018-07-02T23:25:34.778Z,1.10
2018-07-02T23:28:03.142Z,0.73
2018-07-02T23:30:32.400Z,1.00
2018-07-02T23:33:00.885Z,1.00
2018-07-02T23:35:29.066Z,1.30
2018-07-02T23:37:57.232Z,1.07
2018-07-02T23:40:26.025Z,0.97
2018-07-02T23:42:55.069Z,1.13
2018-07-02T23:45:24.072Z,1.10
2018-07-02T23:47:52.241Z,0.93
2018-07-02T23:50:20.400Z,1.20
2018-07-02T23:52:48.581Z,1.27
2018-07-02T23:55:16.761Z,1.60
2018-07-02T23:57:44.972Z,0.80
